AAY4952 KOGD-KMSO
Flight info
| Callsign | AAY4952 |
|---|---|
| Flight time | 1h 35m |
| Altitude | 36000 |
| Route | MLD LKT |
| Aircraft | A320/M-SDE3FGHIRWY/LB1 |
Departure
| Time | 2026-04-18 00:55 |
|---|---|
| Airport | Ogden Hinckley Airport (KOGD) |
Arrival
| Time | 2026-04-18 02:30 |
|---|---|
| Airport | Missoula Montana Airport (KMSO) |
| Time | Latitude | Longitude | Altitude | Speed | Heading |
|---|---|---|---|---|---|
| 2026-04-18 00:31 | 41.19281 | -112.01004 | 4457 ft | 0 kts | 184° |
| 2026-04-18 00:47 | 41.19274 | -112.01018 | 4457 ft | 5 kts | 239° |
| 2026-04-18 00:48 | 41.19292 | -112.01046 | 4457 ft | 3 kts | 340° |
| 2026-04-18 00:48 | 41.19309 | -112.01048 | 4457 ft | 1 kts | 358° |
| 2026-04-18 00:48 | 41.19311 | -112.01048 | 4457 ft | 0 kts | 358° |
| 2026-04-18 00:49 | 41.19333 | -112.01049 | 4457 ft | 10 kts | 359° |
| 2026-04-18 00:49 | 41.19380 | -112.01046 | 4457 ft | 10 kts | 14° |
| 2026-04-18 00:49 | 41.19428 | -112.00993 | 4455 ft | 9 kts | 45° |
| 2026-04-18 00:49 | 41.19472 | -112.00935 | 4454 ft | 9 kts | 44° |
| 2026-04-18 00:50 | 41.19511 | -112.00884 | 4454 ft | 7 kts | 44° |
| 2026-04-18 00:50 | 41.19566 | -112.00812 | 4451 ft | 17 kts | 45° |
| 2026-04-18 00:50 | 41.19672 | -112.00673 | 4444 ft | 23 kts | 45° |
| 2026-04-18 00:50 | 41.19767 | -112.00546 | 4439 ft | 18 kts | 46° |
| 2026-04-18 00:51 | 41.19868 | -112.00413 | 4433 ft | 22 kts | 46° |
| 2026-04-18 00:51 | 41.19980 | -112.00267 | 4430 ft | 22 kts | 45° |
| 2026-04-18 00:51 | 41.20078 | -112.00138 | 4428 ft | 16 kts | 44° |
| 2026-04-18 00:51 | 41.20176 | -112.00050 | 4424 ft | 19 kts | 22° |
| 2026-04-18 00:52 | 41.20267 | -111.99957 | 4419 ft | 12 kts | 36° |
| 2026-04-18 00:52 | 41.20289 | -111.99946 | 4420 ft | 0 kts | 8° |
| 2026-04-18 00:53 | 41.20321 | -111.99952 | 4419 ft | 10 kts | 340° |
| 2026-04-18 00:53 | 41.20355 | -112.00026 | 4419 ft | 11 kts | 269° |
| 2026-04-18 00:53 | 41.20333 | -112.00072 | 4422 ft | 0 kts | 226° |
| 2026-04-18 00:54 | 41.20317 | -112.00094 | 4422 ft | 20 kts | 226° |
| 2026-04-18 00:54 | 41.20061 | -112.00435 | 4432 ft | 84 kts | 225° |
| 2026-04-18 00:55 | 41.19489 | -112.01187 | 4463 ft | 147 kts | 225° |
| 2026-04-18 00:55 | 41.18717 | -112.02211 | 4954 ft | 159 kts | 225° |
| 2026-04-18 00:55 | 41.18070 | -112.03404 | 5755 ft | 165 kts | 254° |
| 2026-04-18 00:55 | 41.17938 | -112.04877 | 6501 ft | 168 kts | 266° |
| 2026-04-18 00:56 | 41.17827 | -112.06515 | 6690 ft | 189 kts | 263° |
| 2026-04-18 00:56 | 41.17673 | -112.08344 | 6888 ft | 208 kts | 263° |
| 2026-04-18 00:56 | 41.17506 | -112.10293 | 7254 ft | 221 kts | 264° |
| 2026-04-18 00:56 | 41.17324 | -112.12441 | 7501 ft | 246 kts | 264° |
| 2026-04-18 00:57 | 41.17124 | -112.14802 | 7946 ft | 266 kts | 264° |
| 2026-04-18 00:57 | 41.16915 | -112.17268 | 8717 ft | 271 kts | 265° |
| 2026-04-18 00:57 | 41.16705 | -112.19764 | 9570 ft | 274 kts | 265° |
| 2026-04-18 00:57 | 41.16473 | -112.22281 | 9910 ft | 276 kts | 261° |
| 2026-04-18 00:58 | 41.15652 | -112.24636 | 10158 ft | 296 kts | 238° |
| 2026-04-18 00:58 | 41.14600 | -112.27073 | 10453 ft | 311 kts | 254° |
| 2026-04-18 00:58 | 41.14068 | -112.29872 | 11101 ft | 315 kts | 261° |
| 2026-04-18 00:58 | 41.13603 | -112.32726 | 11875 ft | 318 kts | 261° |
| 2026-04-18 00:59 | 41.13125 | -112.35595 | 12667 ft | 320 kts | 261° |
| 2026-04-18 00:59 | 41.12599 | -112.38469 | 13448 ft | 324 kts | 256° |
| 2026-04-18 00:59 | 41.11488 | -112.41115 | 14162 ft | 338 kts | 234° |
| 2026-04-18 00:59 | 41.09618 | -112.43103 | 14781 ft | 355 kts | 213° |
| 2026-04-18 01:00 | 41.07217 | -112.44118 | 15357 ft | 372 kts | 192° |
| 2026-04-18 01:00 | 41.04592 | -112.43971 | 15912 ft | 388 kts | 171° |
| 2026-04-18 01:00 | 41.02057 | -112.42628 | 16457 ft | 399 kts | 149° |
| 2026-04-18 01:00 | 40.99943 | -112.40214 | 16987 ft | 405 kts | 128° |
| 2026-04-18 01:01 | 40.98516 | -112.37007 | 17524 ft | 406 kts | 107° |
| 2026-04-18 01:01 | 40.97948 | -112.33393 | 18064 ft | 400 kts | 85° |
| 2026-04-18 01:01 | 40.98289 | -112.29804 | 18597 ft | 390 kts | 65° |
| 2026-04-18 01:01 | 40.99404 | -112.26606 | 19081 ft | 378 kts | 47° |
| 2026-04-18 01:02 | 41.01114 | -112.24063 | 19586 ft | 365 kts | 30° |
| 2026-04-18 01:02 | 41.03225 | -112.22330 | 20126 ft | 352 kts | 14° |
| 2026-04-18 01:02 | 41.05539 | -112.21452 | 20696 ft | 342 kts | 0° |
| 2026-04-18 01:02 | 41.07881 | -112.21408 | 21255 ft | 334 kts | 347° |
| 2026-04-18 01:03 | 41.10175 | -112.21878 | 21818 ft | 334 kts | 346° |
| 2026-04-18 01:03 | 41.12477 | -112.22359 | 22408 ft | 335 kts | 346° |
| 2026-04-18 01:03 | 41.14756 | -112.22834 | 22975 ft | 337 kts | 345° |
| 2026-04-18 01:03 | 41.17076 | -112.23315 | 23219 ft | 337 kts | 345° |
| 2026-04-18 01:04 | 41.19390 | -112.23797 | 23265 ft | 336 kts | 345° |
| 2026-04-18 01:04 | 41.21700 | -112.24280 | 23262 ft | 336 kts | 346° |
| 2026-04-18 01:04 | 41.24007 | -112.24761 | 23261 ft | 335 kts | 346° |
| 2026-04-18 01:04 | 41.26312 | -112.25243 | 23259 ft | 335 kts | 346° |
| 2026-04-18 01:05 | 41.28617 | -112.25726 | 23259 ft | 335 kts | 346° |
| 2026-04-18 01:05 | 41.30914 | -112.26208 | 23263 ft | 334 kts | 346° |
| 2026-04-18 01:05 | 41.33217 | -112.26690 | 23401 ft | 337 kts | 346° |
| 2026-04-18 01:05 | 41.35537 | -112.27175 | 23949 ft | 338 kts | 346° |
| 2026-04-18 01:06 | 41.37867 | -112.27662 | 24412 ft | 340 kts | 346° |
| 2026-04-18 01:06 | 41.40209 | -112.28153 | 24845 ft | 342 kts | 346° |
| 2026-04-18 01:06 | 41.42566 | -112.28651 | 25263 ft | 343 kts | 345° |
| 2026-04-18 01:06 | 41.44930 | -112.29149 | 25673 ft | 345 kts | 345° |
| 2026-04-18 01:07 | 41.47310 | -112.29650 | 26068 ft | 347 kts | 345° |
| 2026-04-18 01:07 | 41.49692 | -112.30152 | 26480 ft | 348 kts | 345° |
| 2026-04-18 01:07 | 41.52096 | -112.30659 | 26863 ft | 350 kts | 345° |
| 2026-04-18 01:07 | 41.54504 | -112.31165 | 27238 ft | 352 kts | 345° |
| 2026-04-18 01:08 | 41.56927 | -112.31674 | 27609 ft | 353 kts | 345° |
| 2026-04-18 01:08 | 41.59364 | -112.32189 | 27977 ft | 355 kts | 345° |
| 2026-04-18 01:08 | 41.61807 | -112.32706 | 28349 ft | 357 kts | 345° |
| 2026-04-18 01:08 | 41.64266 | -112.33224 | 28712 ft | 358 kts | 345° |
| 2026-04-18 01:09 | 41.66731 | -112.33744 | 29069 ft | 359 kts | 345° |
| 2026-04-18 01:09 | 41.69197 | -112.34267 | 29393 ft | 360 kts | 345° |
| 2026-04-18 01:09 | 41.71682 | -112.34795 | 29702 ft | 362 kts | 345° |
| 2026-04-18 01:09 | 41.74176 | -112.35323 | 30044 ft | 364 kts | 345° |
| 2026-04-18 01:10 | 41.76688 | -112.35856 | 30385 ft | 366 kts | 345° |
| 2026-04-18 01:10 | 41.79209 | -112.36393 | 30629 ft | 368 kts | 345° |
| 2026-04-18 01:10 | 41.81737 | -112.36933 | 30870 ft | 370 kts | 345° |
| 2026-04-18 01:10 | 41.84287 | -112.37478 | 31112 ft | 372 kts | 345° |
| 2026-04-18 01:11 | 41.86851 | -112.38024 | 31335 ft | 374 kts | 345° |
| 2026-04-18 01:11 | 41.89424 | -112.38571 | 31603 ft | 374 kts | 345° |
| 2026-04-18 01:11 | 41.91993 | -112.39120 | 31903 ft | 374 kts | 345° |
| 2026-04-18 01:11 | 41.94566 | -112.39671 | 32190 ft | 375 kts | 345° |
| 2026-04-18 01:12 | 41.97141 | -112.40221 | 32476 ft | 375 kts | 345° |
| 2026-04-18 01:12 | 41.99716 | -112.40769 | 32767 ft | 376 kts | 345° |
| 2026-04-18 01:12 | 42.02301 | -112.41321 | 33049 ft | 376 kts | 345° |
| 2026-04-18 01:12 | 42.04890 | -112.41876 | 33311 ft | 377 kts | 345° |
| 2026-04-18 01:13 | 42.07476 | -112.42431 | 33597 ft | 377 kts | 345° |
| 2026-04-18 01:13 | 42.10073 | -112.42990 | 33910 ft | 378 kts | 345° |
| 2026-04-18 01:13 | 42.12665 | -112.43549 | 34201 ft | 378 kts | 345° |
| 2026-04-18 01:13 | 42.15263 | -112.44107 | 34429 ft | 378 kts | 345° |
| 2026-04-18 01:14 | 42.17865 | -112.44667 | 34633 ft | 379 kts | 345° |
| 2026-04-18 01:14 | 42.20429 | -112.45429 | 34806 ft | 376 kts | 338° |
| 2026-04-18 01:14 | 42.22863 | -112.46681 | 34996 ft | 375 kts | 334° |
| 2026-04-18 01:14 | 42.25280 | -112.48021 | 35188 ft | 376 kts | 334° |
| 2026-04-18 01:15 | 42.27703 | -112.49363 | 35371 ft | 377 kts | 334° |
| 2026-04-18 01:15 | 42.30131 | -112.50709 | 35544 ft | 378 kts | 334° |
| 2026-04-18 01:15 | 42.32565 | -112.52057 | 35718 ft | 378 kts | 334° |
| 2026-04-18 01:15 | 42.35005 | -112.53408 | 35874 ft | 380 kts | 334° |
| 2026-04-18 01:16 | 42.37453 | -112.54763 | 36062 ft | 381 kts | 334° |
| 2026-04-18 01:16 | 42.39907 | -112.56120 | 36228 ft | 382 kts | 334° |
| 2026-04-18 01:16 | 42.44800 | -112.58831 | 36279 ft | 379 kts | 334° |
| 2026-04-18 01:17 | 42.49642 | -112.61517 | 36279 ft | 378 kts | 334° |
| 2026-04-18 01:17 | 42.54509 | -112.64222 | 36281 ft | 378 kts | 334° |
| 2026-04-18 01:18 | 42.59367 | -112.66929 | 36267 ft | 378 kts | 334° |
| 2026-04-18 01:18 | 42.64227 | -112.69652 | 36259 ft | 378 kts | 334° |
| 2026-04-18 01:19 | 42.69081 | -112.72371 | 36251 ft | 377 kts | 334° |
| 2026-04-18 01:19 | 42.73933 | -112.75088 | 36235 ft | 377 kts | 334° |
| 2026-04-18 01:20 | 42.78786 | -112.77803 | 36225 ft | 377 kts | 334° |
| 2026-04-18 01:20 | 42.83642 | -112.80535 | 36214 ft | 378 kts | 334° |
| 2026-04-18 01:21 | 42.88504 | -112.83278 | 36216 ft | 379 kts | 334° |
| 2026-04-18 01:21 | 42.93381 | -112.86022 | 36213 ft | 380 kts | 334° |
| 2026-04-18 01:22 | 42.98273 | -112.88780 | 36212 ft | 381 kts | 334° |
| 2026-04-18 01:22 | 43.03173 | -112.91546 | 36213 ft | 382 kts | 335° |
| 2026-04-18 01:23 | 43.08092 | -112.94335 | 36207 ft | 383 kts | 334° |
| 2026-04-18 01:23 | 43.13020 | -112.97141 | 36206 ft | 384 kts | 335° |
| 2026-04-18 01:24 | 43.17959 | -112.99956 | 36210 ft | 384 kts | 335° |
| 2026-04-18 01:24 | 43.22890 | -113.02770 | 36213 ft | 384 kts | 335° |
| 2026-04-18 01:25 | 43.27827 | -113.05585 | 36210 ft | 384 kts | 335° |
| 2026-04-18 01:25 | 43.32751 | -113.08400 | 36206 ft | 383 kts | 335° |
| 2026-04-18 01:26 | 43.37670 | -113.11213 | 36207 ft | 382 kts | 335° |
| 2026-04-18 01:26 | 43.42578 | -113.14027 | 36205 ft | 382 kts | 335° |
| 2026-04-18 01:27 | 43.47446 | -113.16825 | 36204 ft | 381 kts | 335° |
| 2026-04-18 01:27 | 43.52332 | -113.19643 | 36206 ft | 380 kts | 335° |
| 2026-04-18 01:28 | 43.57203 | -113.22461 | 36211 ft | 379 kts | 335° |
| 2026-04-18 01:28 | 43.62064 | -113.25275 | 36214 ft | 378 kts | 335° |
| 2026-04-18 01:29 | 43.66913 | -113.28076 | 36216 ft | 377 kts | 335° |
| 2026-04-18 01:29 | 43.71745 | -113.30878 | 36213 ft | 377 kts | 334° |
| 2026-04-18 01:30 | 43.76578 | -113.33690 | 36220 ft | 376 kts | 335° |
| 2026-04-18 01:30 | 43.81406 | -113.36498 | 36223 ft | 376 kts | 335° |
| 2026-04-18 01:31 | 43.86232 | -113.39306 | 36233 ft | 376 kts | 335° |
| 2026-04-18 01:31 | 43.91054 | -113.42124 | 36242 ft | 376 kts | 335° |
| 2026-04-18 01:32 | 43.95879 | -113.44946 | 36248 ft | 376 kts | 335° |
| 2026-04-18 01:32 | 44.00696 | -113.47771 | 36250 ft | 376 kts | 335° |
| 2026-04-18 01:33 | 44.05521 | -113.50608 | 36253 ft | 377 kts | 335° |
| 2026-04-18 01:33 | 44.10343 | -113.53444 | 36256 ft | 376 kts | 335° |
| 2026-04-18 01:34 | 44.15165 | -113.56279 | 36259 ft | 376 kts | 335° |
| 2026-04-18 01:34 | 44.19985 | -113.59127 | 36257 ft | 376 kts | 335° |
| 2026-04-18 01:35 | 44.24811 | -113.61976 | 36262 ft | 376 kts | 335° |
| 2026-04-18 01:35 | 44.29602 | -113.64815 | 36261 ft | 377 kts | 335° |
| 2026-04-18 01:36 | 44.33641 | -113.67213 | 36261 ft | 376 kts | 335° |
| 2026-04-18 01:36 | 44.38456 | -113.70070 | 36261 ft | 376 kts | 335° |
| 2026-04-18 01:37 | 44.43273 | -113.72937 | 36254 ft | 376 kts | 335° |
| 2026-04-18 01:37 | 44.48080 | -113.75809 | 36252 ft | 376 kts | 335° |
| 2026-04-18 01:38 | 44.52885 | -113.78686 | 36235 ft | 375 kts | 335° |
| 2026-04-18 01:38 | 44.57683 | -113.81549 | 36235 ft | 375 kts | 335° |
| 2026-04-18 01:39 | 44.62478 | -113.84421 | 36228 ft | 375 kts | 335° |
| 2026-04-18 01:39 | 44.67268 | -113.87299 | 36229 ft | 375 kts | 335° |
| 2026-04-18 01:40 | 44.72055 | -113.90185 | 36223 ft | 374 kts | 335° |
| 2026-04-18 01:40 | 44.76818 | -113.93060 | 36234 ft | 375 kts | 335° |
| 2026-04-18 01:41 | 44.81603 | -113.95958 | 36239 ft | 374 kts | 335° |
| 2026-04-18 01:41 | 44.86381 | -113.98848 | 36234 ft | 374 kts | 335° |
| 2026-04-18 01:42 | 44.91161 | -114.01747 | 36078 ft | 374 kts | 335° |
| 2026-04-18 01:42 | 44.93536 | -114.03192 | 35836 ft | 370 kts | 335° |
| 2026-04-18 01:42 | 44.95921 | -114.04640 | 35588 ft | 366 kts | 335° |
| 2026-04-18 01:43 | 44.98221 | -114.06032 | 35353 ft | 362 kts | 335° |
| 2026-04-18 01:43 | 45.00604 | -114.07293 | 35191 ft | 361 kts | 341° |
| 2026-04-18 01:43 | 45.03044 | -114.08078 | 35053 ft | 361 kts | 347° |
| 2026-04-18 01:43 | 45.05546 | -114.08411 | 34908 ft | 362 kts | 354° |
| 2026-04-18 01:44 | 45.08031 | -114.08419 | 34775 ft | 361 kts | 354° |
| 2026-04-18 01:44 | 45.10541 | -114.08417 | 34630 ft | 359 kts | 354° |
| 2026-04-18 01:44 | 45.13031 | -114.08415 | 34493 ft | 357 kts | 354° |
| 2026-04-18 01:44 | 45.15538 | -114.08414 | 34356 ft | 355 kts | 354° |
| 2026-04-18 01:45 | 45.17967 | -114.08412 | 34214 ft | 353 kts | 354° |
| 2026-04-18 01:45 | 45.20415 | -114.08410 | 34055 ft | 351 kts | 354° |
| 2026-04-18 01:45 | 45.22851 | -114.08411 | 33894 ft | 349 kts | 354° |
| 2026-04-18 01:45 | 45.25269 | -114.08413 | 33731 ft | 347 kts | 354° |
| 2026-04-18 01:46 | 45.27681 | -114.08414 | 33564 ft | 346 kts | 354° |
| 2026-04-18 01:46 | 45.30084 | -114.08415 | 33411 ft | 344 kts | 354° |
| 2026-04-18 01:46 | 45.32473 | -114.08416 | 33258 ft | 343 kts | 355° |
| 2026-04-18 01:46 | 45.34853 | -114.08414 | 33106 ft | 341 kts | 354° |
| 2026-04-18 01:47 | 45.37226 | -114.08413 | 32952 ft | 340 kts | 355° |
| 2026-04-18 01:47 | 45.39584 | -114.08415 | 32794 ft | 339 kts | 355° |
| 2026-04-18 01:47 | 45.41942 | -114.08414 | 32650 ft | 338 kts | 355° |
| 2026-04-18 01:47 | 45.44293 | -114.08413 | 32492 ft | 337 kts | 355° |
| 2026-04-18 01:48 | 45.46623 | -114.08413 | 32346 ft | 335 kts | 355° |
| 2026-04-18 01:48 | 45.48954 | -114.08412 | 32094 ft | 333 kts | 355° |
| 2026-04-18 01:48 | 45.51249 | -114.08409 | 31748 ft | 327 kts | 355° |
| 2026-04-18 01:48 | 45.53513 | -114.08407 | 31310 ft | 323 kts | 355° |
| 2026-04-18 01:49 | 45.55749 | -114.08406 | 30882 ft | 319 kts | 355° |
| 2026-04-18 01:49 | 45.57957 | -114.08401 | 30459 ft | 316 kts | 355° |
| 2026-04-18 01:49 | 45.60143 | -114.08399 | 29996 ft | 312 kts | 355° |
| 2026-04-18 01:49 | 45.62299 | -114.08398 | 29596 ft | 308 kts | 355° |
| 2026-04-18 01:50 | 45.64430 | -114.08399 | 29206 ft | 304 kts | 355° |
| 2026-04-18 01:50 | 45.66527 | -114.08402 | 28824 ft | 300 kts | 355° |
| 2026-04-18 01:50 | 45.68591 | -114.08404 | 28597 ft | 290 kts | 356° |
| 2026-04-18 01:50 | 45.70620 | -114.08405 | 27881 ft | 296 kts | 356° |
| 2026-04-18 01:51 | 45.72693 | -114.08407 | 27288 ft | 298 kts | 356° |
| 2026-04-18 01:51 | 45.74766 | -114.08405 | 26793 ft | 297 kts | 356° |
| 2026-04-18 01:51 | 45.76829 | -114.08403 | 26364 ft | 295 kts | 357° |
| 2026-04-18 01:51 | 45.78873 | -114.08402 | 25919 ft | 293 kts | 357° |
| 2026-04-18 01:52 | 45.80906 | -114.08400 | 25491 ft | 291 kts | 357° |
| 2026-04-18 01:52 | 45.82921 | -114.08400 | 25033 ft | 288 kts | 357° |
| 2026-04-18 01:52 | 45.84919 | -114.08400 | 24625 ft | 286 kts | 358° |
| 2026-04-18 01:52 | 45.86905 | -114.08402 | 24208 ft | 284 kts | 358° |
| 2026-04-18 01:53 | 45.88874 | -114.08403 | 23757 ft | 282 kts | 358° |
| 2026-04-18 01:53 | 45.90828 | -114.08400 | 23282 ft | 281 kts | 358° |
| 2026-04-18 01:53 | 45.92779 | -114.08399 | 22761 ft | 280 kts | 358° |
| 2026-04-18 01:54 | 45.96670 | -114.08398 | 21825 ft | 279 kts | 358° |
| 2026-04-18 01:54 | 45.98609 | -114.08398 | 21391 ft | 278 kts | 359° |
| 2026-04-18 01:54 | 46.00513 | -114.08398 | 20913 ft | 277 kts | 358° |
| 2026-04-18 01:54 | 46.02467 | -114.08398 | 20452 ft | 277 kts | 358° |
| 2026-04-18 01:55 | 46.04368 | -114.08394 | 20026 ft | 277 kts | 359° |
| 2026-04-18 01:55 | 46.06317 | -114.08391 | 19587 ft | 277 kts | 358° |
| 2026-04-18 01:55 | 46.08244 | -114.08385 | 19193 ft | 277 kts | 358° |
| 2026-04-18 01:55 | 46.10172 | -114.08380 | 18775 ft | 277 kts | 359° |
| 2026-04-18 01:56 | 46.12073 | -114.08379 | 18344 ft | 277 kts | 358° |
| 2026-04-18 01:56 | 46.14000 | -114.08382 | 17885 ft | 277 kts | 358° |
| 2026-04-18 01:56 | 46.15929 | -114.08385 | 17441 ft | 277 kts | 358° |
| 2026-04-18 01:56 | 46.17862 | -114.08386 | 16988 ft | 278 kts | 358° |
| 2026-04-18 01:57 | 46.19803 | -114.08387 | 16561 ft | 279 kts | 358° |
| 2026-04-18 01:57 | 46.21743 | -114.08391 | 16157 ft | 280 kts | 358° |
| 2026-04-18 01:57 | 46.23692 | -114.08391 | 15767 ft | 280 kts | 358° |
| 2026-04-18 01:57 | 46.25645 | -114.08386 | 15373 ft | 281 kts | 358° |
| 2026-04-18 01:58 | 46.27604 | -114.08380 | 14982 ft | 282 kts | 358° |
| 2026-04-18 01:58 | 46.29567 | -114.08377 | 14604 ft | 282 kts | 358° |
| 2026-04-18 01:58 | 46.31533 | -114.08378 | 14234 ft | 283 kts | 358° |
| 2026-04-18 01:58 | 46.33506 | -114.08381 | 13840 ft | 283 kts | 358° |
| 2026-04-18 01:59 | 46.35476 | -114.08382 | 13466 ft | 283 kts | 358° |
| 2026-04-18 01:59 | 46.37442 | -114.08384 | 13091 ft | 282 kts | 358° |
| 2026-04-18 01:59 | 46.39400 | -114.08383 | 12819 ft | 282 kts | 358° |
| 2026-04-18 01:59 | 46.41355 | -114.08379 | 12550 ft | 281 kts | 358° |
| 2026-04-18 02:00 | 46.43313 | -114.08378 | 12287 ft | 281 kts | 358° |
| 2026-04-18 02:00 | 46.45266 | -114.08380 | 12022 ft | 280 kts | 358° |
| 2026-04-18 02:00 | 46.47207 | -114.08380 | 11761 ft | 277 kts | 358° |
| 2026-04-18 02:00 | 46.49117 | -114.08377 | 11500 ft | 272 kts | 357° |
| 2026-04-18 02:01 | 46.50992 | -114.08372 | 11258 ft | 267 kts | 357° |
| 2026-04-18 02:01 | 46.52838 | -114.08370 | 10993 ft | 263 kts | 357° |
| 2026-04-18 02:01 | 46.54655 | -114.08369 | 10740 ft | 259 kts | 357° |
| 2026-04-18 02:01 | 46.56442 | -114.08370 | 10485 ft | 255 kts | 357° |
| 2026-04-18 02:02 | 46.58199 | -114.08370 | 10232 ft | 250 kts | 357° |
| 2026-04-18 02:02 | 46.59926 | -114.08371 | 9973 ft | 246 kts | 357° |
| 2026-04-18 02:02 | 46.61606 | -114.08370 | 9838 ft | 238 kts | 356° |
| 2026-04-18 02:02 | 46.63257 | -114.08370 | 9693 ft | 236 kts | 357° |
| 2026-04-18 02:03 | 46.64878 | -114.08370 | 9551 ft | 236 kts | 357° |
| 2026-04-18 02:03 | 46.66515 | -114.08372 | 9406 ft | 235 kts | 357° |
| 2026-04-18 02:03 | 46.68174 | -114.08376 | 9276 ft | 235 kts | 357° |
| 2026-04-18 02:03 | 46.69791 | -114.08378 | 8991 ft | 235 kts | 357° |
| 2026-04-18 02:04 | 46.71422 | -114.08257 | 8646 ft | 236 kts | 5° |
| 2026-04-18 02:04 | 46.73049 | -114.07917 | 8277 ft | 237 kts | 4° |
| 2026-04-18 02:04 | 46.74686 | -114.07584 | 7899 ft | 239 kts | 4° |
| 2026-04-18 02:04 | 46.76337 | -114.07249 | 7511 ft | 241 kts | 4° |
| 2026-04-18 02:05 | 46.77983 | -114.06756 | 7112 ft | 243 kts | 17° |
| 2026-04-18 02:05 | 46.79463 | -114.05626 | 6713 ft | 238 kts | 31° |
| 2026-04-18 02:05 | 46.80802 | -114.04285 | 6313 ft | 230 kts | 30° |
| 2026-04-18 02:05 | 46.82102 | -114.03003 | 5926 ft | 220 kts | 30° |
| 2026-04-18 02:06 | 46.83345 | -114.01798 | 5574 ft | 206 kts | 26° |
| 2026-04-18 02:06 | 46.84607 | -114.01130 | 5202 ft | 182 kts | 4° |
| 2026-04-18 02:06 | 46.85794 | -114.01137 | 4933 ft | 163 kts | 346° |
| 2026-04-18 02:06 | 46.86820 | -114.01620 | 4692 ft | 148 kts | 329° |
| 2026-04-18 02:07 | 46.87648 | -114.02441 | 4498 ft | 141 kts | 314° |
| 2026-04-18 02:07 | 46.88306 | -114.03507 | 4277 ft | 144 kts | 308° |
| 2026-04-18 02:07 | 46.88950 | -114.04627 | 3967 ft | 144 kts | 308° |
| 2026-04-18 02:07 | 46.89599 | -114.05735 | 3649 ft | 144 kts | 308° |
| 2026-04-18 02:08 | 46.90248 | -114.06842 | 3393 ft | 142 kts | 309° |
| 2026-04-18 02:08 | 46.90885 | -114.07922 | 3238 ft | 139 kts | 307° |
| 2026-04-18 02:08 | 46.91521 | -114.08986 | 3460 ft | 146 kts | 308° |
| 2026-04-18 02:08 | 46.92227 | -114.10210 | 4056 ft | 169 kts | 307° |
| 2026-04-18 02:09 | 46.93062 | -114.11654 | 4193 ft | 202 kts | 309° |
| 2026-04-18 02:09 | 46.94011 | -114.13279 | 4470 ft | 216 kts | 309° |
| 2026-04-18 02:09 | 46.94984 | -114.14941 | 5368 ft | 215 kts | 309° |
| 2026-04-18 02:09 | 46.95962 | -114.16616 | 6343 ft | 217 kts | 308° |
| 2026-04-18 02:10 | 46.96943 | -114.18298 | 7160 ft | 218 kts | 308° |
| 2026-04-18 02:10 | 46.97934 | -114.19999 | 7963 ft | 220 kts | 309° |
| 2026-04-18 02:10 | 46.98933 | -114.21717 | 8781 ft | 223 kts | 309° |
| 2026-04-18 02:10 | 46.99940 | -114.23451 | 9627 ft | 224 kts | 310° |
| 2026-04-18 02:11 | 47.00953 | -114.25194 | 10438 ft | 226 kts | 310° |
| 2026-04-18 02:11 | 47.01980 | -114.26962 | 11170 ft | 229 kts | 311° |
| 2026-04-18 02:11 | 47.02984 | -114.28810 | 11822 ft | 235 kts | 308° |
| 2026-04-18 02:11 | 47.03751 | -114.30913 | 11994 ft | 238 kts | 285° |
| 2026-04-18 02:12 | 47.03719 | -114.33344 | 12034 ft | 244 kts | 257° |
| 2026-04-18 02:12 | 47.02896 | -114.35538 | 12038 ft | 253 kts | 229° |
| 2026-04-18 02:12 | 47.01402 | -114.36930 | 12039 ft | 261 kts | 198° |
| 2026-04-18 02:12 | 46.99611 | -114.37073 | 12038 ft | 266 kts | 167° |
| 2026-04-18 02:13 | 46.97967 | -114.35887 | 11895 ft | 264 kts | 135° |
| 2026-04-18 02:13 | 46.96962 | -114.33701 | 11546 ft | 259 kts | 107° |
| 2026-04-18 02:13 | 46.96364 | -114.31207 | 11180 ft | 260 kts | 107° |
| 2026-04-18 02:13 | 46.95767 | -114.28709 | 10864 ft | 260 kts | 107° |
| 2026-04-18 02:14 | 46.95166 | -114.26220 | 10540 ft | 259 kts | 108° |
| 2026-04-18 02:14 | 46.94564 | -114.23741 | 10222 ft | 258 kts | 108° |
| 2026-04-18 02:14 | 46.93962 | -114.21267 | 9874 ft | 257 kts | 108° |
| 2026-04-18 02:14 | 46.93362 | -114.18817 | 9705 ft | 256 kts | 109° |
| 2026-04-18 02:15 | 46.92758 | -114.16354 | 9571 ft | 256 kts | 109° |
| 2026-04-18 02:15 | 46.92163 | -114.13930 | 9437 ft | 253 kts | 109° |
| 2026-04-18 02:15 | 46.91570 | -114.11506 | 9312 ft | 253 kts | 109° |
| 2026-04-18 02:15 | 46.90971 | -114.09082 | 9164 ft | 253 kts | 111° |
| 2026-04-18 02:16 | 46.90113 | -114.06841 | 9034 ft | 253 kts | 124° |
| 2026-04-18 02:16 | 46.89134 | -114.04707 | 8926 ft | 252 kts | 124° |
| 2026-04-18 02:16 | 46.88164 | -114.02577 | 9022 ft | 253 kts | 124° |
| 2026-04-18 02:16 | 46.87192 | -114.00438 | 9007 ft | 253 kts | 124° |
| 2026-04-18 02:17 | 46.86219 | -113.98301 | 9008 ft | 253 kts | 124° |
| 2026-04-18 02:17 | 46.85243 | -113.96162 | 9010 ft | 252 kts | 124° |
| 2026-04-18 02:17 | 46.84274 | -113.94034 | 9027 ft | 252 kts | 124° |
| 2026-04-18 02:17 | 46.83302 | -113.91897 | 9020 ft | 252 kts | 124° |
| 2026-04-18 02:18 | 46.82329 | -113.89758 | 9032 ft | 253 kts | 124° |
| 2026-04-18 02:18 | 46.81345 | -113.87633 | 8999 ft | 253 kts | 127° |
| 2026-04-18 02:18 | 46.80199 | -113.85717 | 8862 ft | 250 kts | 137° |
| 2026-04-18 02:18 | 46.78881 | -113.84119 | 8727 ft | 248 kts | 148° |
| 2026-04-18 02:19 | 46.77385 | -113.82832 | 8822 ft | 247 kts | 156° |
| 2026-04-18 02:19 | 46.75794 | -113.81908 | 8839 ft | 245 kts | 166° |
| 2026-04-18 02:19 | 46.74154 | -113.81375 | 8842 ft | 245 kts | 175° |
| 2026-04-18 02:19 | 46.72469 | -113.81212 | 8836 ft | 242 kts | 185° |
| 2026-04-18 02:20 | 46.70804 | -113.81420 | 8854 ft | 239 kts | 193° |
| 2026-04-18 02:20 | 46.69199 | -113.81985 | 8851 ft | 237 kts | 202° |
| 2026-04-18 02:20 | 46.67662 | -113.82892 | 8849 ft | 234 kts | 211° |
| 2026-04-18 02:20 | 46.66284 | -113.84080 | 8838 ft | 232 kts | 219° |
| 2026-04-18 02:21 | 46.65024 | -113.85574 | 8856 ft | 230 kts | 227° |
| 2026-04-18 02:21 | 46.63964 | -113.87250 | 8855 ft | 227 kts | 235° |
| 2026-04-18 02:21 | 46.63070 | -113.89138 | 8856 ft | 226 kts | 243° |
| 2026-04-18 02:21 | 46.62377 | -113.91179 | 8862 ft | 225 kts | 251° |
| 2026-04-18 02:22 | 46.61896 | -113.93334 | 8853 ft | 224 kts | 258° |
| 2026-04-18 02:22 | 46.61627 | -113.95558 | 8858 ft | 223 kts | 266° |
| 2026-04-18 02:22 | 46.61625 | -113.97779 | 8727 ft | 215 kts | 277° |
| 2026-04-18 02:22 | 46.61899 | -113.99872 | 8594 ft | 207 kts | 287° |
| 2026-04-18 02:23 | 46.62401 | -114.01797 | 8454 ft | 202 kts | 296° |
| 2026-04-18 02:23 | 46.63113 | -114.03549 | 8332 ft | 201 kts | 305° |
| 2026-04-18 02:23 | 46.64020 | -114.05096 | 8198 ft | 201 kts | 314° |
| 2026-04-18 02:23 | 46.65101 | -114.06394 | 8068 ft | 202 kts | 323° |
| 2026-04-18 02:24 | 46.65897 | -114.07100 | 7978 ft | 203 kts | 330° |
| 2026-04-18 02:24 | 46.67200 | -114.07910 | 7843 ft | 204 kts | 340° |
| 2026-04-18 02:24 | 46.68589 | -114.08372 | 7710 ft | 206 kts | 349° |
| 2026-04-18 02:24 | 46.70022 | -114.08476 | 7580 ft | 207 kts | 359° |
| 2026-04-18 02:25 | 46.71460 | -114.08239 | 7456 ft | 208 kts | 4° |
| 2026-04-18 02:25 | 46.72898 | -114.07946 | 7303 ft | 209 kts | 4° |
| 2026-04-18 02:25 | 46.74335 | -114.07660 | 7062 ft | 208 kts | 4° |
| 2026-04-18 02:25 | 46.75770 | -114.07372 | 6790 ft | 208 kts | 4° |
| 2026-04-18 02:26 | 46.77201 | -114.07081 | 6501 ft | 208 kts | 4° |
| 2026-04-18 02:26 | 46.78588 | -114.06456 | 6218 ft | 211 kts | 26° |
| 2026-04-18 02:26 | 46.79800 | -114.05294 | 5947 ft | 207 kts | 31° |
| 2026-04-18 02:26 | 46.80970 | -114.04139 | 5590 ft | 197 kts | 30° |
| 2026-04-18 02:27 | 46.82069 | -114.03056 | 5325 ft | 185 kts | 30° |
| 2026-04-18 02:27 | 46.83098 | -114.02041 | 5079 ft | 173 kts | 30° |
| 2026-04-18 02:27 | 46.84109 | -114.01310 | 4887 ft | 154 kts | 13° |
| 2026-04-18 02:27 | 46.85127 | -114.01068 | 4714 ft | 146 kts | 355° |
| 2026-04-18 02:28 | 46.86105 | -114.01236 | 4548 ft | 140 kts | 341° |
| 2026-04-18 02:28 | 46.86994 | -114.01756 | 4398 ft | 136 kts | 328° |
| 2026-04-18 02:28 | 46.87748 | -114.02582 | 4226 ft | 136 kts | 314° |
| 2026-04-18 02:28 | 46.88365 | -114.03622 | 4028 ft | 136 kts | 308° |
| 2026-04-18 02:29 | 46.88976 | -114.04667 | 3812 ft | 136 kts | 308° |
| 2026-04-18 02:29 | 46.89588 | -114.05727 | 3575 ft | 136 kts | 308° |
| 2026-04-18 02:29 | 46.90203 | -114.06766 | 3395 ft | 134 kts | 310° |
| 2026-04-18 02:29 | 46.90809 | -114.07793 | 3256 ft | 133 kts | 309° |
| 2026-04-18 02:30 | 46.91367 | -114.08762 | 3203 ft | 109 kts | 310° |
| 2026-04-18 02:30 | 46.91750 | -114.09411 | 3205 ft | 59 kts | 311° |
| 2026-04-18 02:30 | 46.91924 | -114.09703 | 3202 ft | 28 kts | 310° |
| 2026-04-18 02:30 | 46.92034 | -114.09883 | 3202 ft | 20 kts | 320° |
| 2026-04-18 02:31 | 46.92146 | -114.09867 | 3205 ft | 14 kts | 38° |
| 2026-04-18 02:31 | 46.92172 | -114.09830 | 3207 ft | 0 kts | 50° |
| 2026-04-18 02:36 | 46.92163 | -114.09727 | 3203 ft | 24 kts | 125° |
| 2026-04-18 02:36 | 46.92041 | -114.09527 | 3203 ft | 26 kts | 132° |
| 2026-04-18 02:37 | 46.91927 | -114.09332 | 3203 ft | 24 kts | 130° |
| 2026-04-18 02:37 | 46.91824 | -114.09156 | 3206 ft | 21 kts | 131° |
| 2026-04-18 02:37 | 46.91786 | -114.09091 | 3202 ft | 7 kts | 131° |
| 2026-04-18 02:37 | 46.91780 | -114.09032 | 3208 ft | 9 kts | 50° |
| 2026-04-18 02:38 | 46.91823 | -114.08978 | 3206 ft | 11 kts | 40° |
| 2026-04-18 02:38 | 46.91900 | -114.08883 | 3209 ft | 15 kts | 40° |
| 2026-04-18 02:38 | 46.91922 | -114.08769 | 3206 ft | 12 kts | 121° |
| 2026-04-18 02:38 | 46.91862 | -114.08663 | 3205 ft | 16 kts | 131° |
| 2026-04-18 02:39 | 46.91793 | -114.08548 | 3209 ft | 14 kts | 131° |
| 2026-04-18 02:39 | 46.91782 | -114.08479 | 3209 ft | 6 kts | 65° |
| 2026-04-18 02:39 | 46.91803 | -114.08434 | 3206 ft | 5 kts | 54° |
| 2026-04-18 02:39 | 46.91809 | -114.08421 | 3203 ft | 0 kts | 54° |